createdAt,value
2023-03-07T00:01:38.014Z,2.69
2023-03-07T00:04:11.097Z,2.67
2023-03-07T00:06:46.361Z,2.63
2023-03-07T00:09:19.536Z,2.56
2023-03-07T00:11:52.904Z,2.47
2023-03-07T00:14:26.052Z,2.38
2023-03-07T00:16:58.751Z,2.29
2023-03-07T00:19:31.320Z,2.19
2023-03-07T00:22:03.910Z,2.12
2023-03-07T00:24:36.597Z,2.05
2023-03-07T00:27:10.611Z,1.98
2023-03-07T00:29:45.721Z,1.95
2023-03-07T00:32:18.311Z,1.96
2023-03-07T00:34:50.862Z,2.01
2023-03-07T00:37:23.894Z,2.04
2023-03-07T00:39:56.684Z,2.05
2023-03-07T00:42:30.497Z,2.07
2023-03-07T00:45:06.855Z,2.09
2023-03-07T00:48:00.097Z,2.14
2023-03-07T00:50:32.936Z,2.16
2023-03-07T00:53:07.353Z,2.19
2023-03-07T00:55:40.288Z,2.20
2023-03-07T00:58:13.214Z,2.20
2023-03-07T01:00:46.566Z,2.19
2023-03-07T01:03:20.749Z,2.18
2023-03-07T01:05:53.839Z,2.15
2023-03-07T01:08:26.821Z,2.11
2023-03-07T01:11:05.151Z,2.07
2023-03-07T01:13:36.928Z,2.03
2023-03-07T01:16:15.873Z,1.96
2023-03-07T01:18:52.839Z,1.93
2023-03-07T01:21:28.880Z,1.88
2023-03-07T01:24:02.901Z,1.85
2023-03-07T01:26:36.172Z,1.83
2023-03-07T01:29:12.236Z,1.80
2023-03-07T01:31:45.192Z,1.76
2023-03-07T01:34:18.054Z,1.74
2023-03-07T01:36:50.950Z,1.69
2023-03-07T01:39:23.684Z,1.64
2023-03-07T01:42:03.139Z,1.59
2023-03-07T01:45:03.478Z,1.53
2023-03-07T01:47:46.078Z,1.46
2023-03-07T01:50:20.766Z,1.43
2023-03-07T01:52:55.609Z,1.41
2023-03-07T01:55:33.024Z,1.39
2023-03-07T01:58:18.501Z,1.36
2023-03-07T02:00:52.117Z,1.36
2023-03-07T02:03:30.934Z,1.35
2023-03-07T02:06:09.086Z,1.37
2023-03-07T02:08:43.599Z,1.38
2023-03-07T02:11:17.150Z,1.42
2023-03-07T02:13:49.815Z,1.48
2023-03-07T02:16:23.503Z,1.55
2023-03-07T02:18:56.498Z,1.63
2023-03-07T02:21:40.357Z,1.70
2023-03-07T02:24:22.363Z,1.79
2023-03-07T02:26:56.568Z,1.88
2023-03-07T02:29:29.204Z,1.96
2023-03-07T02:32:01.998Z,2.03
2023-03-07T02:34:35.171Z,2.09
2023-03-07T02:37:18.400Z,2.16
2023-03-07T02:39:51.981Z,2.23
2023-03-07T02:42:28.311Z,2.29
2023-03-07T02:45:11.708Z,2.35
2023-03-07T02:47:47.426Z,2.42
2023-03-07T02:50:22.249Z,2.47
2023-03-07T02:53:06.722Z,2.50
2023-03-07T02:55:52.763Z,2.54
2023-03-07T02:58:46.457Z,2.56
2023-03-07T03:01:30.450Z,2.57
2023-03-07T03:04:23.546Z,2.53
2023-03-07T03:07:09.523Z,2.48
2023-03-07T03:09:52.984Z,2.40
2023-03-07T03:12:28.687Z,2.32
2023-03-07T03:15:08.022Z,2.24
2023-03-07T03:17:56.176Z,2.15
2023-03-07T03:20:42.423Z,2.06
2023-03-07T03:23:36.460Z,1.97
2023-03-07T03:26:29.300Z,1.89
2023-03-07T03:29:02.119Z,1.81
2023-03-07T03:31:48.405Z,1.73
2023-03-07T03:34:41.670Z,1.65
2023-03-07T03:37:36.404Z,1.58
2023-03-07T03:40:17.403Z,1.54
2023-03-07T03:43:01.140Z,1.48
2023-03-07T03:45:38.088Z,1.42
2023-03-07T03:48:24.307Z,1.37
2023-03-07T03:51:10.258Z,1.32
2023-03-07T03:54:03.272Z,1.28
2023-03-07T03:56:49.605Z,1.26
2023-03-07T03:59:43.788Z,1.24
2023-03-07T04:02:33.419Z,1.23
2023-03-07T04:05:11.090Z,1.25
2023-03-07T04:07:57.523Z,1.28
2023-03-07T04:10:50.671Z,1.35
2023-03-07T04:13:34.727Z,1.44
2023-03-07T04:16:19.573Z,1.55
2023-03-07T04:19:02.880Z,1.66
2023-03-07T04:21:55.003Z,1.76
2023-03-07T04:24:48.435Z,1.87
2023-03-07T04:27:35.457Z,1.95
2023-03-07T04:30:21.557Z,2.03
2023-03-07T04:33:14.933Z,2.10
2023-03-07T04:35:58.730Z,2.16
2023-03-07T04:38:53.926Z,2.20
2023-03-07T04:41:40.688Z,2.25
2023-03-07T04:44:22.564Z,2.30
2023-03-07T04:47:15.693Z,2.37
2023-03-07T04:50:09.749Z,2.44
2023-03-07T04:53:02.809Z,2.49
2023-03-07T04:56:00.876Z,2.53
2023-03-07T04:58:53.589Z,2.59
2023-03-07T05:01:47.041Z,2.64
2023-03-07T05:04:39.925Z,2.69
2023-03-07T05:07:31.883Z,2.73
2023-03-07T05:10:24.782Z,2.78
2023-03-07T05:12:57.914Z,2.83
2023-03-07T05:15:57.066Z,2.86
2023-03-07T05:18:42.896Z,2.90
2023-03-07T05:21:35.979Z,2.94
2023-03-07T05:24:29.181Z,2.98
2023-03-07T05:27:21.925Z,3.01
2023-03-07T05:29:57.939Z,3.05
2023-03-07T05:32:51.506Z,3.10
2023-03-07T05:35:39.446Z,3.16
2023-03-07T05:38:32.560Z,3.18
2023-03-07T05:41:25.476Z,3.21
2023-03-07T05:44:18.308Z,3.26
2023-03-07T05:47:11.558Z,3.29
2023-03-07T05:50:04.925Z,3.33
2023-03-07T05:52:58.069Z,3.38
2023-03-07T05:55:50.956Z,3.45
2023-03-07T05:58:44.556Z,3.52
2023-03-07T06:01:37.510Z,3.57
2023-03-07T06:04:30.614Z,3.61
2023-03-07T06:07:24.101Z,3.64
2023-03-07T06:10:07.203Z,3.66
2023-03-07T06:12:45.307Z,3.69
2023-03-07T06:15:38.427Z,3.74
2023-03-07T06:18:31.456Z,3.78
2023-03-07T06:21:12.427Z,3.82
2023-03-07T06:23:54.315Z,3.86
2023-03-07T06:26:37.414Z,3.90
2023-03-07T06:29:27.535Z,3.96
2023-03-07T06:32:03.995Z,4.03
2023-03-07T06:34:55.949Z,4.09
2023-03-07T06:37:38.576Z,4.15
2023-03-07T06:40:23.023Z,4.23
2023-03-07T06:43:16.075Z,4.29
2023-03-07T06:45:51.802Z,4.35
2023-03-07T06:48:25.704Z,4.45
2023-03-07T06:51:19.007Z,4.57
2023-03-07T06:54:02.501Z,4.65
2023-03-07T06:56:38.508Z,4.76
2023-03-07T06:59:21.733Z,4.87
2023-03-07T07:02:16.767Z,5.02
2023-03-07T07:05:10.824Z,5.12
2023-03-07T07:07:47.031Z,5.21
2023-03-07T07:10:38.970Z,5.30
2023-03-07T07:13:31.763Z,5.41
2023-03-07T07:16:26.443Z,5.52
2023-03-07T07:19:19.323Z,5.62
2023-03-07T07:22:16.044Z,5.75
2023-03-07T07:25:01.769Z,5.94
2023-03-07T07:27:37.933Z,6.12
2023-03-07T07:30:22.781Z,6.29
2023-03-07T07:32:59.281Z,6.39
2023-03-07T07:35:32.837Z,6.43
2023-03-07T07:38:16.806Z,6.44
2023-03-07T07:40:50.059Z,6.45
2023-03-07T07:43:34.255Z,6.44
2023-03-07T07:46:43.932Z,6.45
2023-03-07T07:49:36.990Z,6.49
2023-03-07T07:52:24.130Z,6.52
2023-03-07T07:55:17.101Z,6.53
2023-03-07T07:58:01.143Z,6.57
2023-03-07T08:00:54.367Z,6.66
2023-03-07T08:03:48.125Z,6.74
2023-03-07T08:06:41.255Z,6.86
2023-03-07T08:09:23.091Z,6.99
2023-03-07T08:11:58.621Z,7.13
2023-03-07T08:14:51.393Z,7.24
2023-03-07T08:17:44.565Z,7.29
2023-03-07T08:20:37.774Z,7.29
2023-03-07T08:23:30.880Z,7.04
2023-03-07T08:26:11.497Z,6.85
2023-03-07T08:28:54.225Z,6.74
2023-03-07T08:31:51.374Z,6.70
2023-03-07T08:34:24.325Z,6.74
2023-03-07T08:37:17.342Z,6.85
2023-03-07T08:39:50.364Z,6.95
2023-03-07T08:42:43.891Z,7.02
2023-03-07T08:45:17.852Z,7.09
2023-03-07T08:48:11.713Z,7.21
2023-03-07T08:50:47.158Z,7.33
2023-03-07T08:53:28.740Z,7.44
2023-03-07T08:56:10.964Z,7.55
2023-03-07T08:58:53.433Z,7.64
2023-03-07T09:01:31.429Z,7.76
2023-03-07T09:04:07.211Z,7.89
2023-03-07T09:06:40.074Z,8.01
2023-03-07T09:09:26.873Z,8.16
2023-03-07T09:12:19.685Z,8.21
2023-03-07T09:15:05.559Z,8.15
2023-03-07T09:17:51.505Z,8.03
2023-03-07T09:20:35.921Z,7.88
2023-03-07T09:23:29.117Z,7.76
2023-03-07T09:26:24.533Z,7.61
2023-03-07T09:29:17.432Z,7.54
2023-03-07T09:32:06.412Z,7.55
2023-03-07T09:34:59.473Z,7.57
2023-03-07T09:37:52.884Z,7.60
2023-03-07T09:40:48.470Z,7.61
2023-03-07T09:43:47.157Z,7.56
2023-03-07T09:47:02.385Z,7.47
2023-03-07T09:49:47.293Z,7.41
2023-03-07T09:52:34.993Z,7.44
2023-03-07T09:55:22.084Z,7.49
2023-03-07T09:57:58.061Z,7.53
2023-03-07T10:00:57.352Z,7.64
2023-03-07T10:03:48.216Z,7.78
2023-03-07T10:06:44.318Z,7.81
2023-03-07T10:09:37.420Z,7.69
2023-03-07T10:12:42.922Z,7.58
2023-03-07T10:15:45.694Z,7.61
2023-03-07T10:18:49.781Z,7.86
2023-03-07T10:21:41.309Z,7.99
2023-03-07T10:24:48.203Z,7.97
2023-03-07T10:27:34.067Z,8.02
2023-03-07T10:30:26.662Z,8.12
2023-03-07T10:33:21.277Z,8.28
2023-03-07T10:36:00.787Z,8.38
2023-03-07T10:38:43.428Z,8.44
2023-03-07T10:41:18.543Z,8.49
2023-03-07T10:43:53.514Z,8.53
2023-03-07T10:46:32.102Z,8.57
2023-03-07T10:49:15.037Z,8.66
2023-03-07T10:52:03.807Z,8.72
2023-03-07T10:54:40.455Z,8.82
2023-03-07T10:57:16.605Z,8.86
2023-03-07T10:59:51.028Z,8.89
2023-03-07T11:02:41.509Z,8.92
2023-03-07T11:05:32.615Z,8.97
2023-03-07T11:08:28.443Z,9.06
2023-03-07T11:11:02.796Z,9.08
2023-03-07T11:13:37.825Z,9.09
2023-03-07T11:16:21.095Z,9.11
2023-03-07T11:18:54.469Z,9.08
2023-03-07T11:21:35.244Z,9.01
2023-03-07T11:24:21.599Z,8.90
2023-03-07T11:26:58.441Z,8.85
2023-03-07T11:29:33.715Z,8.91
2023-03-07T11:32:15.725Z,9.03
2023-03-07T11:34:54.236Z,9.11
2023-03-07T11:37:34.381Z,9.15
2023-03-07T11:40:25.637Z,9.21
2023-03-07T11:43:14.932Z,9.23
2023-03-07T11:45:56.494Z,9.26
2023-03-07T11:48:43.475Z,9.21
2023-03-07T11:51:33.574Z,9.16
2023-03-07T11:54:16.706Z,9.12
2023-03-07T11:57:20.026Z,9.15
2023-03-07T12:00:18.848Z,9.22
2023-03-07T12:03:06.244Z,9.30
2023-03-07T12:05:55.747Z,9.37
2023-03-07T12:08:40.741Z,9.49
2023-03-07T12:11:26.642Z,9.68
2023-03-07T12:14:13.873Z,9.85
2023-03-07T12:16:54.210Z,9.93
2023-03-07T12:19:54.301Z,9.89
2023-03-07T12:22:31.563Z,9.89
2023-03-07T12:25:14.957Z,9.87
2023-03-07T12:27:51.880Z,9.77
2023-03-07T12:30:35.094Z,9.66
2023-03-07T12:33:08.775Z,9.58
2023-03-07T12:35:47.869Z,9.51
2023-03-07T12:38:29.257Z,9.42
2023-03-07T12:41:07.001Z,9.31
2023-03-07T12:43:45.285Z,9.19
2023-03-07T12:46:24.937Z,9.00
2023-03-07T12:49:06.135Z,8.77
2023-03-07T12:51:43.580Z,8.56
2023-03-07T12:54:23.810Z,8.39
2023-03-07T12:57:01.545Z,8.28
2023-03-07T12:59:37.327Z,8.23
2023-03-07T13:02:16.683Z,8.25
2023-03-07T13:04:49.488Z,8.31
2023-03-07T13:07:26.240Z,8.35
2023-03-07T13:10:00.800Z,8.35
2023-03-07T13:12:36.772Z,8.38
2023-03-07T13:15:32.508Z,8.43
2023-03-07T13:18:29.342Z,8.48
2023-03-07T13:21:34.206Z,8.57
2023-03-07T13:24:34.290Z,8.61
2023-03-07T13:27:16.939Z,8.62
2023-03-07T13:30:21.737Z,8.62
2023-03-07T13:33:01.793Z,8.59
2023-03-07T13:35:59.392Z,8.57
2023-03-07T13:38:44.279Z,8.49
2023-03-07T13:41:47.838Z,8.49
2023-03-07T13:44:42.502Z,8.46
2023-03-07T13:47:43.949Z,8.47
2023-03-07T13:51:01.292Z,8.50
2023-03-07T13:53:41.049Z,8.47
2023-03-07T13:56:31.115Z,8.45
2023-03-07T13:59:16.930Z,8.43
2023-03-07T14:02:18.289Z,8.41
2023-03-07T14:04:55.482Z,8.37
2023-03-07T14:07:43.461Z,8.37
2023-03-07T14:10:24.016Z,8.42
2023-03-07T14:13:44.929Z,8.46
2023-03-07T14:16:29.416Z,8.50
2023-03-07T14:19:31.797Z,8.47
2023-03-07T14:22:36.782Z,8.43
2023-03-07T14:25:32.272Z,8.40
2023-03-07T14:28:28.102Z,8.32
2023-03-07T14:31:21.695Z,8.25
2023-03-07T14:34:30.980Z,8.23
2023-03-07T14:37:26.683Z,8.19
2023-03-07T14:40:41.523Z,8.15
2023-03-07T14:43:52.952Z,8.09
2023-03-07T14:46:36.606Z,8.03
2023-03-07T14:49:31.168Z,7.96
2023-03-07T14:52:30.120Z,7.90
2023-03-07T14:55:21.422Z,7.83
2023-03-07T14:58:07.673Z,7.76
2023-03-07T15:00:44.325Z,7.68
2023-03-07T15:03:17.472Z,7.60
2023-03-07T15:05:57.588Z,7.52
2023-03-07T15:08:52.291Z,7.45
2023-03-07T15:11:36.509Z,7.37
2023-03-07T15:14:19.803Z,7.29
2023-03-07T15:17:11.055Z,7.20
2023-03-07T15:19:49.751Z,7.10
2023-03-07T15:22:40.228Z,6.98
2023-03-07T15:25:26.053Z,6.86
2023-03-07T15:28:04.538Z,6.74
2023-03-07T15:30:58.043Z,6.63
2023-03-07T15:33:32.258Z,6.54
2023-03-07T15:36:21.739Z,6.43
2023-03-07T15:39:35.729Z,6.31
2023-03-07T15:42:24.107Z,6.21
2023-03-07T15:45:01.609Z,6.13
2023-03-07T15:47:37.389Z,6.03
2023-03-07T15:50:27.134Z,5.93
2023-03-07T15:53:08.180Z,5.84
2023-03-07T15:55:41.537Z,5.75
2023-03-07T15:58:17.849Z,5.65
2023-03-07T16:01:04.862Z,5.55
2023-03-07T16:03:37.711Z,5.44
2023-03-07T16:09:15.880Z,5.24
2023-03-07T16:12:15.081Z,5.14
2023-03-07T16:14:50.527Z,5.05
2023-03-07T16:17:27.232Z,4.96
2023-03-07T16:20:20.341Z,4.85
2023-03-07T16:23:03.154Z,4.74
2023-03-07T16:25:38.806Z,4.63
2023-03-07T16:28:31.662Z,4.51
2023-03-07T16:31:20.078Z,4.38
2023-03-07T16:34:02.865Z,4.27
2023-03-07T16:36:38.698Z,4.20
2023-03-07T16:39:15.287Z,4.31
2023-03-07T16:42:09.601Z,4.44
2023-03-07T16:44:43.793Z,4.51
2023-03-07T16:47:19.931Z,4.55
2023-03-07T16:50:19.977Z,4.57
2023-03-07T16:53:02.956Z,4.80
2023-03-07T16:55:57.869Z,5.49
2023-03-07T16:58:50.878Z,6.37
2023-03-07T17:01:43.935Z,7.10
2023-03-07T17:04:26.678Z,7.59
2023-03-07T17:07:19.439Z,8.05
2023-03-07T17:10:13.870Z,8.47
2023-03-07T17:13:01.736Z,8.48
2023-03-07T17:15:39.112Z,7.62
2023-03-07T17:18:16.385Z,6.77
2023-03-07T17:21:10.456Z,6.06
2023-03-07T17:24:03.361Z,5.53
2023-03-07T17:26:57.845Z,5.11
2023-03-07T17:29:44.668Z,4.78
2023-03-07T17:32:20.388Z,4.52
2023-03-07T17:34:53.069Z,4.31
2023-03-07T17:37:28.542Z,4.13
2023-03-07T17:40:10.206Z,4.12
2023-03-07T17:42:55.028Z,5.01
2023-03-07T17:45:48.022Z,6.16
2023-03-07T17:48:21.464Z,6.81
2023-03-07T17:50:53.974Z,7.29
2023-03-07T17:53:26.727Z,7.52
2023-03-07T17:56:06.979Z,7.39
2023-03-07T17:58:41.234Z,6.74
2023-03-07T18:01:15.270Z,6.13
2023-03-07T18:04:08.899Z,5.60
2023-03-07T18:07:01.918Z,5.23
2023-03-07T18:10:07.174Z,4.95
2023-03-07T18:12:44.758Z,4.74
2023-03-07T18:15:30.105Z,4.58
2023-03-07T18:18:06.997Z,4.45
2023-03-07T18:20:40.531Z,4.34
2023-03-07T18:23:33.702Z,4.24
2023-03-07T18:26:15.048Z,4.16
2023-03-07T18:29:07.779Z,4.10
2023-03-07T18:32:00.887Z,4.07
2023-03-07T18:34:37.930Z,4.06
2023-03-07T18:37:23.347Z,4.04
2023-03-07T18:39:56.076Z,4.02
2023-03-07T18:42:42.744Z,4.00
2023-03-07T18:45:16.544Z,3.99
2023-03-07T18:47:55.340Z,3.98
2023-03-07T18:50:30.562Z,4.01
2023-03-07T18:53:11.333Z,4.39
2023-03-07T18:55:49.704Z,4.76
2023-03-07T18:58:43.610Z,5.65
2023-03-07T19:01:21.476Z,6.83
2023-03-07T19:04:03.030Z,7.68
2023-03-07T19:06:38.802Z,8.01
2023-03-07T19:09:19.681Z,7.33
2023-03-07T19:11:52.286Z,6.60
2023-03-07T19:14:28.040Z,6.08
2023-03-07T19:17:20.840Z,5.65
2023-03-07T19:19:59.363Z,5.35
2023-03-07T19:22:35.078Z,5.11
2023-03-07T19:25:12.004Z,4.92
2023-03-07T19:27:45.089Z,4.75
2023-03-07T19:30:20.809Z,4.62
2023-03-07T19:32:59.851Z,4.50
2023-03-07T19:36:02.037Z,4.38
2023-03-07T19:38:57.853Z,4.29
2023-03-07T19:41:35.819Z,4.23
2023-03-07T19:44:28.591Z,4.19
2023-03-07T19:47:01.121Z,4.18
2023-03-07T19:49:37.263Z,4.18
2023-03-07T19:52:27.008Z,4.18
2023-03-07T19:55:02.890Z,4.19
2023-03-07T19:57:47.029Z,4.20
2023-03-07T20:00:40.587Z,4.22
2023-03-07T20:03:26.905Z,4.23
2023-03-07T20:05:59.837Z,4.25
2023-03-07T20:08:34.590Z,4.25
2023-03-07T20:11:15.469Z,4.27
2023-03-07T20:14:08.494Z,4.28
2023-03-07T20:16:44.303Z,4.28
2023-03-07T20:19:16.919Z,4.28
2023-03-07T20:21:50.929Z,4.28
2023-03-07T20:24:23.684Z,4.26
2023-03-07T20:26:56.599Z,4.24
2023-03-07T20:29:49.947Z,4.22
2023-03-07T20:32:22.818Z,4.19
2023-03-07T20:34:56.311Z,4.19
2023-03-07T20:37:32.401Z,4.20
2023-03-07T20:40:06.602Z,4.20
2023-03-07T20:42:41.663Z,4.20
2023-03-07T20:45:15.074Z,4.20
2023-03-07T20:47:56.652Z,4.20
2023-03-07T20:50:29.317Z,4.21
2023-03-07T20:53:08.340Z,4.23
2023-03-07T20:56:05.750Z,4.26
2023-03-07T20:58:45.392Z,4.29
2023-03-07T21:01:23.591Z,4.32
2023-03-07T21:04:00.602Z,4.33
2023-03-07T21:06:36.777Z,4.36
2023-03-07T21:09:14.169Z,4.39
2023-03-07T21:11:50.266Z,4.39
2023-03-07T21:14:26.308Z,4.39
2023-03-07T21:16:58.968Z,4.41
2023-03-07T21:19:31.669Z,4.40
2023-03-07T21:22:13.314Z,4.39
2023-03-07T21:24:46.239Z,4.37
2023-03-07T21:27:18.725Z,4.36
2023-03-07T21:30:02.943Z,4.35
2023-03-07T21:32:38.336Z,4.34
2023-03-07T21:35:12.714Z,4.34
2023-03-07T21:37:45.427Z,4.35
2023-03-07T21:40:19.018Z,4.36
2023-03-07T21:42:51.723Z,4.37
2023-03-07T21:45:25.671Z,4.38
2023-03-07T21:48:20.674Z,4.40
2023-03-07T21:51:13.629Z,4.40
2023-03-07T21:53:46.798Z,4.41
2023-03-07T21:56:23.881Z,4.41
2023-03-07T21:58:59.182Z,4.42
2023-03-07T22:01:42.913Z,4.43
2023-03-07T22:04:16.892Z,4.43
2023-03-07T22:06:51.745Z,4.41
2023-03-07T22:09:24.370Z,4.41
2023-03-07T22:11:59.818Z,4.40
2023-03-07T22:14:35.644Z,4.42
2023-03-07T22:17:09.621Z,4.41
2023-03-07T22:19:45.300Z,4.43
2023-03-07T22:22:17.852Z,4.46
2023-03-07T22:24:51.376Z,4.47
2023-03-07T22:27:24.057Z,4.49
2023-03-07T22:30:07.942Z,4.50
2023-03-07T22:32:40.684Z,4.51
2023-03-07T22:35:13.865Z,4.51
2023-03-07T22:37:46.779Z,4.51
2023-03-07T22:40:21.626Z,4.50
2023-03-07T22:43:04.348Z,4.49
2023-03-07T22:45:40.126Z,4.48
2023-03-07T22:48:12.865Z,4.49
2023-03-07T22:50:48.826Z,4.50
2023-03-07T22:53:21.551Z,4.50
2023-03-07T22:55:54.173Z,4.50
2023-03-07T22:58:27.196Z,4.48
2023-03-07T23:00:59.853Z,4.45
2023-03-07T23:03:34.033Z,4.49
2023-03-07T23:06:07.021Z,5.24
2023-03-07T23:08:39.542Z,6.21
2023-03-07T23:11:12.792Z,7.11
2023-03-07T23:13:45.874Z,7.93
2023-03-07T23:16:20.808Z,8.26
2023-03-07T23:18:55.763Z,7.65
2023-03-07T23:21:31.249Z,6.93
2023-03-07T23:24:05.299Z,6.39
2023-03-07T23:26:40.277Z,5.98
2023-03-07T23:29:22.941Z,5.65
2023-03-07T23:31:55.566Z,5.41
2023-03-07T23:34:28.112Z,5.22
2023-03-07T23:37:01.025Z,5.06
2023-03-07T23:39:33.749Z,4.94
2023-03-07T23:42:07.584Z,4.83
2023-03-07T23:44:43.450Z,4.75
2023-03-07T23:47:15.958Z,4.69
2023-03-07T23:49:48.570Z,4.65
2023-03-07T23:52:21.220Z,4.63
2023-03-07T23:54:53.780Z,4.62
2023-03-07T23:57:26.517Z,4.60
2023-03-07T23:59:59.033Z,4.60
